sensor_id;sensor_type;location;lat;lon;timestamp;temperature;humidity
48648;DHT22;34437;-33.956;151.076;2023-05-01T00:00:39;18.50;67.20
48648;DHT22;34437;-33.956;151.076;2023-05-01T00:03:01;18.50;67.20
48648;DHT22;34437;-33.956;151.076;2023-05-01T00:05:23;18.50;67.20
48648;DHT22;34437;-33.956;151.076;2023-05-01T00:07:46;18.60;67.10
48648;DHT22;34437;-33.956;151.076;2023-05-01T00:10:08;18.60;66.90
48648;DHT22;34437;-33.956;151.076;2023-05-01T00:12:31;18.60;66.70
48648;DHT22;34437;-33.956;151.076;2023-05-01T00:14:53;18.60;66.70
48648;DHT22;34437;-33.956;151.076;2023-05-01T00:17:16;18.70;66.60
48648;DHT22;34437;-33.956;151.076;2023-05-01T00:19:38;18.70;66.50
48648;DHT22;34437;-33.956;151.076;2023-05-01T00:22:01;18.60;66.10
48648;DHT22;34437;-33.956;151.076;2023-05-01T00:24:24;18.60;65.90
48648;DHT22;34437;-33.956;151.076;2023-05-01T00:26:47;18.60;66.00
48648;DHT22;34437;-33.956;151.076;2023-05-01T00:29:09;18.60;66.10
48648;DHT22;34437;-33.956;151.076;2023-05-01T00:31:32;18.60;66.20
48648;DHT22;34437;-33.956;151.076;2023-05-01T00:33:54;18.60;66.20
48648;DHT22;34437;-33.956;151.076;2023-05-01T00:36:17;18.60;66.20
48648;DHT22;34437;-33.956;151.076;2023-05-01T00:38:39;18.60;66.30
48648;DHT22;34437;-33.956;151.076;2023-05-01T00:41:01;18.70;66.40
48648;DHT22;34437;-33.956;151.076;2023-05-01T00:43:24;18.70;66.30
48648;DHT22;34437;-33.956;151.076;2023-05-01T00:45:46;18.70;66.30
48648;DHT22;34437;-33.956;151.076;2023-05-01T00:48:09;18.70;66.40
48648;DHT22;34437;-33.956;151.076;2023-05-01T00:50:32;18.70;66.40
48648;DHT22;34437;-33.956;151.076;2023-05-01T00:52:55;18.70;66.70
48648;DHT22;34437;-33.956;151.076;2023-05-01T00:55:18;18.70;66.60
48648;DHT22;34437;-33.956;151.076;2023-05-01T00:57:40;18.70;66.60
48648;DHT22;34437;-33.956;151.076;2023-05-01T01:00:03;18.70;66.50
48648;DHT22;34437;-33.956;151.076;2023-05-01T01:02:26;18.70;66.30
48648;DHT22;34437;-33.956;151.076;2023-05-01T01:04:48;18.70;66.40
48648;DHT22;34437;-33.956;151.076;2023-05-01T01:07:39;18.70;66.20
48648;DHT22;34437;-33.956;151.076;2023-05-01T01:15:28;18.80;66.00
48648;DHT22;34437;-33.956;151.076;2023-05-01T01:18:07;18.80;65.90
48648;DHT22;34437;-33.956;151.076;2023-05-01T01:31:51;18.80;66.00
48648;DHT22;34437;-33.956;151.076;2023-05-01T01:34:32;18.80;66.10
48648;DHT22;34437;-33.956;151.076;2023-05-01T01:37:07;18.80;66.00
48648;DHT22;34437;-33.956;151.076;2023-05-01T01:40:00;18.90;66.10
48648;DHT22;34437;-33.956;151.076;2023-05-01T01:42:39;18.90;66.30
48648;DHT22;34437;-33.956;151.076;2023-05-01T01:45:20;18.90;66.10
48648;DHT22;34437;-33.956;151.076;2023-05-01T01:47:45;18.90;66.10
48648;DHT22;34437;-33.956;151.076;2023-05-01T01:50:10;19.00;66.70
48648;DHT22;34437;-33.956;151.076;2023-05-01T01:52:36;19.00;66.10
48648;DHT22;34437;-33.956;151.076;2023-05-01T01:55:08;19.00;66.00
48648;DHT22;34437;-33.956;151.076;2023-05-01T01:57:33;19.00;66.00
48648;DHT22;34437;-33.956;151.076;2023-05-01T01:59:58;19.00;65.90
48648;DHT22;34437;-33.956;151.076;2023-05-01T02:02:20;19.00;65.90
48648;DHT22;34437;-33.956;151.076;2023-05-01T02:04:44;19.00;66.00
48648;DHT22;34437;-33.956;151.076;2023-05-01T02:07:08;19.00;66.00
48648;DHT22;34437;-33.956;151.076;2023-05-01T02:09:34;19.00;66.20
48648;DHT22;34437;-33.956;151.076;2023-05-01T02:11:57;19.00;66.10
48648;DHT22;34437;-33.956;151.076;2023-05-01T02:14:23;19.00;66.60
48648;DHT22;34437;-33.956;151.076;2023-05-01T02:16:46;19.00;66.10
48648;DHT22;34437;-33.956;151.076;2023-05-01T02:19:10;19.10;66.40
48648;DHT22;34437;-33.956;151.076;2023-05-01T02:21:33;19.10;66.20
48648;DHT22;34437;-33.956;151.076;2023-05-01T02:23:56;19.10;66.40
48648;DHT22;34437;-33.956;151.076;2023-05-01T02:26:20;19.20;66.40
48648;DHT22;34437;-33.956;151.076;2023-05-01T02:28:47;19.20;66.50
48648;DHT22;34437;-33.956;151.076;2023-05-01T02:31:09;19.20;66.50
48648;DHT22;34437;-33.956;151.076;2023-05-01T02:33:32;19.30;66.50
48648;DHT22;34437;-33.956;151.076;2023-05-01T02:35:54;19.30;66.30
48648;DHT22;34437;-33.956;151.076;2023-05-01T02:38:17;19.30;66.30
48648;DHT22;34437;-33.956;151.076;2023-05-01T02:40:40;19.40;66.40
48648;DHT22;34437;-33.956;151.076;2023-05-01T02:43:08;19.40;66.50
48648;DHT22;34437;-33.956;151.076;2023-05-01T02:45:31;19.40;66.30
48648;DHT22;34437;-33.956;151.076;2023-05-01T02:47:58;19.50;66.50
48648;DHT22;34437;-33.956;151.076;2023-05-01T02:50:23;19.50;66.20
48648;DHT22;34437;-33.956;151.076;2023-05-01T02:52:46;19.50;66.20
48648;DHT22;34437;-33.956;151.076;2023-05-01T02:55:09;19.60;66.20
48648;DHT22;34437;-33.956;151.076;2023-05-01T02:57:33;19.60;66.10
48648;DHT22;34437;-33.956;151.076;2023-05-01T02:59:55;19.60;66.20
48648;DHT22;34437;-33.956;151.076;2023-05-01T03:02:17;19.70;66.40
48648;DHT22;34437;-33.956;151.076;2023-05-01T03:04:40;19.70;66.30
48648;DHT22;34437;-33.956;151.076;2023-05-01T03:07:04;19.70;66.30
48648;DHT22;34437;-33.956;151.076;2023-05-01T03:09:26;19.70;66.20
48648;DHT22;34437;-33.956;151.076;2023-05-01T03:11:49;19.80;66.20
48648;DHT22;34437;-33.956;151.076;2023-05-01T03:14:11;19.80;65.60
48648;DHT22;34437;-33.956;151.076;2023-05-01T03:16:34;19.80;65.70
48648;DHT22;34437;-33.956;151.076;2023-05-01T03:18:56;19.80;65.90
48648;DHT22;34437;-33.956;151.076;2023-05-01T03:21:19;19.90;65.80
48648;DHT22;34437;-33.956;151.076;2023-05-01T03:23:41;20.00;65.70
48648;DHT22;34437;-33.956;151.076;2023-05-01T03:26:03;20.00;65.40
48648;DHT22;34437;-33.956;151.076;2023-05-01T03:28:26;20.10;65.40
48648;DHT22;34437;-33.956;151.076;2023-05-01T03:30:50;20.20;65.30
48648;DHT22;34437;-33.956;151.076;2023-05-01T03:33:15;20.20;65.20
48648;DHT22;34437;-33.956;151.076;2023-05-01T03:35:38;20.20;65.10
48648;DHT22;34437;-33.956;151.076;2023-05-01T03:38:01;20.20;65.10
48648;DHT22;34437;-33.956;151.076;2023-05-01T03:40:23;20.30;65.00
48648;DHT22;34437;-33.956;151.076;2023-05-01T03:42:46;20.30;64.90
48648;DHT22;34437;-33.956;151.076;2023-05-01T03:45:09;20.40;64.80
48648;DHT22;34437;-33.956;151.076;2023-05-01T03:47:31;20.50;64.90
48648;DHT22;34437;-33.956;151.076;2023-05-01T03:49:54;20.50;64.70
48648;DHT22;34437;-33.956;151.076;2023-05-01T03:52:16;20.60;64.60
48648;DHT22;34437;-33.956;151.076;2023-05-01T03:54:39;20.60;64.40
48648;DHT22;34437;-33.956;151.076;2023-05-01T03:57:01;20.70;64.20
48648;DHT22;34437;-33.956;151.076;2023-05-01T03:59:24;20.80;64.00
48648;DHT22;34437;-33.956;151.076;2023-05-01T04:01:46;20.80;63.50
48648;DHT22;34437;-33.956;151.076;2023-05-01T04:04:09;20.90;63.50
48648;DHT22;34437;-33.956;151.076;2023-05-01T04:06:31;21.00;63.40
48648;DHT22;34437;-33.956;151.076;2023-05-01T04:08:54;21.00;63.40
48648;DHT22;34437;-33.956;151.076;2023-05-01T04:11:16;21.10;63.30
48648;DHT22;34437;-33.956;151.076;2023-05-01T04:13:39;21.20;63.10
48648;DHT22;34437;-33.956;151.076;2023-05-01T04:16:01;21.30;63.00
48648;DHT22;34437;-33.956;151.076;2023-05-01T04:18:24;21.40;62.80
48648;DHT22;34437;-33.956;151.076;2023-05-01T04:20:46;21.50;62.60
48648;DHT22;34437;-33.956;151.076;2023-05-01T04:23:09;21.60;62.50
48648;DHT22;34437;-33.956;151.076;2023-05-01T04:25:31;21.60;62.20
48648;DHT22;34437;-33.956;151.076;2023-05-01T04:27:54;21.70;62.10
48648;DHT22;34437;-33.956;151.076;2023-05-01T04:30:18;21.80;61.80
48648;DHT22;34437;-33.956;151.076;2023-05-01T04:32:40;21.90;61.70
48648;DHT22;34437;-33.956;151.076;2023-05-01T04:35:02;21.90;61.70
48648;DHT22;34437;-33.956;151.076;2023-05-01T04:37:25;21.90;61.80
48648;DHT22;34437;-33.956;151.076;2023-05-01T04:39:48;22.00;61.80
48648;DHT22;34437;-33.956;151.076;2023-05-01T04:42:11;22.00;61.70
48648;DHT22;34437;-33.956;151.076;2023-05-01T04:44:34;22.10;61.50
48648;DHT22;34437;-33.956;151.076;2023-05-01T04:46:57;22.20;61.30
48648;DHT22;34437;-33.956;151.076;2023-05-01T04:49:21;22.30;60.90
48648;DHT22;34437;-33.956;151.076;2023-05-01T04:51:44;22.40;60.10
48648;DHT22;34437;-33.956;151.076;2023-05-01T04:54:06;22.50;60.10
48648;DHT22;34437;-33.956;151.076;2023-05-01T04:56:28;22.60;60.00
48648;DHT22;34437;-33.956;151.076;2023-05-01T04:58:51;22.70;59.70
48648;DHT22;34437;-33.956;151.076;2023-05-01T05:01:13;22.70;59.80
48648;DHT22;34437;-33.956;151.076;2023-05-01T05:03:36;22.70;59.80
48648;DHT22;34437;-33.956;151.076;2023-05-01T05:05:58;22.60;60.00
48648;DHT22;34437;-33.956;151.076;2023-05-01T05:08:21;22.60;60.00
48648;DHT22;34437;-33.956;151.076;2023-05-01T05:10:43;22.60;60.10
48648;DHT22;34437;-33.956;151.076;2023-05-01T05:13:06;22.50;60.30
48648;DHT22;34437;-33.956;151.076;2023-05-01T05:15:28;22.40;60.40
48648;DHT22;34437;-33.956;151.076;2023-05-01T05:17:50;22.40;60.50
48648;DHT22;34437;-33.956;151.076;2023-05-01T05:20:13;22.40;60.60
48648;DHT22;34437;-33.956;151.076;2023-05-01T05:22:36;22.30;60.70
48648;DHT22;34437;-33.956;151.076;2023-05-01T05:24:58;22.30;60.80
48648;DHT22;34437;-33.956;151.076;2023-05-01T05:27:24;22.30;60.70
48648;DHT22;34437;-33.956;151.076;2023-05-01T05:29:47;22.30;60.80
48648;DHT22;34437;-33.956;151.076;2023-05-01T05:32:09;22.20;60.90
48648;DHT22;34437;-33.956;151.076;2023-05-01T05:34:32;22.20;61.20
48648;DHT22;34437;-33.956;151.076;2023-05-01T05:36:54;22.20;61.20
48648;DHT22;34437;-33.956;151.076;2023-05-01T05:39:17;22.20;61.20
48648;DHT22;34437;-33.956;151.076;2023-05-01T05:41:41;22.20;61.20
48648;DHT22;34437;-33.956;151.076;2023-05-01T05:44:03;22.20;61.30
48648;DHT22;34437;-33.956;151.076;2023-05-01T05:46:26;22.20;61.30
48648;DHT22;34437;-33.956;151.076;2023-05-01T05:48:48;22.20;61.20
48648;DHT22;34437;-33.956;151.076;2023-05-01T05:51:11;22.20;61.20
48648;DHT22;34437;-33.956;151.076;2023-05-01T05:53:33;22.20;61.20
48648;DHT22;34437;-33.956;151.076;2023-05-01T05:55:55;22.20;61.20
48648;DHT22;34437;-33.956;151.076;2023-05-01T05:58:18;22.20;61.20
48648;DHT22;34437;-33.956;151.076;2023-05-01T06:00:41;22.20;61.20
48648;DHT22;34437;-33.956;151.076;2023-05-01T06:03:03;22.20;61.20
48648;DHT22;34437;-33.956;151.076;2023-05-01T06:05:26;22.20;61.20
48648;DHT22;34437;-33.956;151.076;2023-05-01T06:07:48;22.20;61.20
48648;DHT22;34437;-33.956;151.076;2023-05-01T06:10:11;22.20;61.20
48648;DHT22;34437;-33.956;151.076;2023-05-01T06:12:34;22.20;61.30
48648;DHT22;34437;-33.956;151.076;2023-05-01T06:14:57;22.20;61.30
48648;DHT22;34437;-33.956;151.076;2023-05-01T06:17:19;22.20;61.20
48648;DHT22;34437;-33.956;151.076;2023-05-01T06:19:42;22.20;61.90
48648;DHT22;34437;-33.956;151.076;2023-05-01T06:22:04;22.20;61.20
48648;DHT22;34437;-33.956;151.076;2023-05-01T06:24:28;22.20;61.30
48648;DHT22;34437;-33.956;151.076;2023-05-01T06:26:50;22.20;61.20
48648;DHT22;34437;-33.956;151.076;2023-05-01T06:29:13;22.20;61.10
48648;DHT22;34437;-33.956;151.076;2023-05-01T06:31:35;22.20;61.10
48648;DHT22;34437;-33.956;151.076;2023-05-01T06:33:57;22.20;61.20
48648;DHT22;34437;-33.956;151.076;2023-05-01T06:36:20;22.30;61.20
48648;DHT22;34437;-33.956;151.076;2023-05-01T06:38:42;22.30;61.20
48648;DHT22;34437;-33.956;151.076;2023-05-01T06:41:09;22.50;61.10
48648;DHT22;34437;-33.956;151.076;2023-05-01T06:43:31;22.80;59.80
48648;DHT22;34437;-33.956;151.076;2023-05-01T06:45:54;23.20;59.20
48648;DHT22;34437;-33.956;151.076;2023-05-01T06:48:16;23.80;57.50
48648;DHT22;34437;-33.956;151.076;2023-05-01T06:50:38;24.30;55.80
48648;DHT22;34437;-33.956;151.076;2023-05-01T06:53:01;25.00;53.50
48648;DHT22;34437;-33.956;151.076;2023-05-01T06:55:23;25.40;50.40
48648;DHT22;34437;-33.956;151.076;2023-05-01T06:57:46;25.00;50.20
48648;DHT22;34437;-33.956;151.076;2023-05-01T07:00:09;24.30;51.30
48648;DHT22;34437;-33.956;151.076;2023-05-01T07:02:31;23.80;52.70
48648;DHT22;34437;-33.956;151.076;2023-05-01T07:04:54;23.40;53.80
48648;DHT22;34437;-33.956;151.076;2023-05-01T07:07:16;23.10;55.00
48648;DHT22;34437;-33.956;151.076;2023-05-01T07:09:40;22.80;55.90
48648;DHT22;34437;-33.956;151.076;2023-05-01T07:12:02;22.70;56.70
48648;DHT22;34437;-33.956;151.076;2023-05-01T07:14:24;22.50;57.30
48648;DHT22;34437;-33.956;151.076;2023-05-01T07:16:47;22.50;57.80
48648;DHT22;34437;-33.956;151.076;2023-05-01T07:19:09;22.40;58.20
48648;DHT22;34437;-33.956;151.076;2023-05-01T07:21:34;22.40;58.50
48648;DHT22;34437;-33.956;151.076;2023-05-01T07:23:56;22.30;58.60
48648;DHT22;34437;-33.956;151.076;2023-05-01T07:26:19;22.30;59.00
48648;DHT22;34437;-33.956;151.076;2023-05-01T07:28:41;22.20;59.20
48648;DHT22;34437;-33.956;151.076;2023-05-01T07:31:04;22.20;59.50
48648;DHT22;34437;-33.956;151.076;2023-05-01T07:33:26;22.20;60.20
48648;DHT22;34437;-33.956;151.076;2023-05-01T07:35:49;22.20;59.60
48648;DHT22;34437;-33.956;151.076;2023-05-01T07:38:11;22.20;59.70
48648;DHT22;34437;-33.956;151.076;2023-05-01T07:40:34;22.20;59.70
48648;DHT22;34437;-33.956;151.076;2023-05-01T07:42:57;22.20;59.70
48648;DHT22;34437;-33.956;151.076;2023-05-01T07:45:19;22.20;59.70
48648;DHT22;34437;-33.956;151.076;2023-05-01T07:47:42;22.30;59.70
48648;DHT22;34437;-33.956;151.076;2023-05-01T07:50:08;22.20;59.70
48648;DHT22;34437;-33.956;151.076;2023-05-01T07:52:30;22.20;60.00
48648;DHT22;34437;-33.956;151.076;2023-05-01T07:54:53;22.20;60.00
48648;DHT22;34437;-33.956;151.076;2023-05-01T07:57:16;22.20;59.90
48648;DHT22;34437;-33.956;151.076;2023-05-01T07:59:38;22.20;60.00
48648;DHT22;34437;-33.956;151.076;2023-05-01T08:02:03;22.20;60.10
48648;DHT22;34437;-33.956;151.076;2023-05-01T08:04:27;22.20;60.20
48648;DHT22;34437;-33.956;151.076;2023-05-01T08:06:50;22.20;60.20
48648;DHT22;34437;-33.956;151.076;2023-05-01T08:09:12;22.20;60.30
48648;DHT22;34437;-33.956;151.076;2023-05-01T08:11:35;22.20;60.30
48648;DHT22;34437;-33.956;151.076;2023-05-01T08:13:57;22.20;60.30
48648;DHT22;34437;-33.956;151.076;2023-05-01T08:16:20;22.10;60.30
48648;DHT22;34437;-33.956;151.076;2023-05-01T08:18:42;22.20;60.40
48648;DHT22;34437;-33.956;151.076;2023-05-01T08:21:04;22.20;60.30
48648;DHT22;34437;-33.956;151.076;2023-05-01T08:23:27;22.20;60.20
48648;DHT22;34437;-33.956;151.076;2023-05-01T08:25:51;22.20;60.20
48648;DHT22;34437;-33.956;151.076;2023-05-01T08:28:17;22.20;60.20
48648;DHT22;34437;-33.956;151.076;2023-05-01T08:30:41;22.10;60.20
48648;DHT22;34437;-33.956;151.076;2023-05-01T08:33:04;22.10;60.20
48648;DHT22;34437;-33.956;151.076;2023-05-01T08:35:27;22.10;60.30
48648;DHT22;34437;-33.956;151.076;2023-05-01T08:37:49;22.10;60.40
48648;DHT22;34437;-33.956;151.076;2023-05-01T08:40:13;22.10;60.20
48648;DHT22;34437;-33.956;151.076;2023-05-01T08:42:35;22.10;60.20
48648;DHT22;34437;-33.956;151.076;2023-05-01T08:45:01;22.20;60.30
48648;DHT22;34437;-33.956;151.076;2023-05-01T08:47:26;22.20;60.20
48648;DHT22;34437;-33.956;151.076;2023-05-01T08:49:50;22.10;60.10
48648;DHT22;34437;-33.956;151.076;2023-05-01T08:52:14;22.10;60.20
48648;DHT22;34437;-33.956;151.076;2023-05-01T08:54:45;22.10;60.30
48648;DHT22;34437;-33.956;151.076;2023-05-01T08:57:10;22.10;60.30
48648;DHT22;34437;-33.956;151.076;2023-05-01T08:59:36;22.10;60.20
48648;DHT22;34437;-33.956;151.076;2023-05-01T09:02:03;22.10;60.00
48648;DHT22;34437;-33.956;151.076;2023-05-01T09:04:31;22.10;60.10
48648;DHT22;34437;-33.956;151.076;2023-05-01T09:06:54;22.10;60.20
48648;DHT22;34437;-33.956;151.076;2023-05-01T09:09:17;22.10;60.10
48648;DHT22;34437;-33.956;151.076;2023-05-01T09:11:40;22.10;60.10
48648;DHT22;34437;-33.956;151.076;2023-05-01T09:14:04;22.10;60.10
48648;DHT22;34437;-33.956;151.076;2023-05-01T09:16:29;22.10;60.10
48648;DHT22;34437;-33.956;151.076;2023-05-01T09:18:51;22.10;60.20
48648;DHT22;34437;-33.956;151.076;2023-05-01T09:21:14;22.10;60.00
48648;DHT22;34437;-33.956;151.076;2023-05-01T09:23:36;22.10;60.00
48648;DHT22;34437;-33.956;151.076;2023-05-01T09:26:02;22.00;59.90
48648;DHT22;34437;-33.956;151.076;2023-05-01T09:33:54;22.00;58.50
48648;DHT22;34437;-33.956;151.076;2023-05-01T09:36:17;21.90;57.80
48648;DHT22;34437;-33.956;151.076;2023-05-01T09:38:42;21.90;57.60
48648;DHT22;34437;-33.956;151.076;2023-05-01T09:41:05;21.80;57.60
48648;DHT22;34437;-33.956;151.076;2023-05-01T09:43:28;21.80;57.60
48648;DHT22;34437;-33.956;151.076;2023-05-01T09:46:09;21.80;57.70
48648;DHT22;34437;-33.956;151.076;2023-05-01T09:48:33;21.70;57.70
48648;DHT22;34437;-33.956;151.076;2023-05-01T09:50:56;21.80;58.10
48648;DHT22;34437;-33.956;151.076;2023-05-01T09:53:19;21.70;58.50
48648;DHT22;34437;-33.956;151.076;2023-05-01T09:56:00;21.70;58.10
48648;DHT22;34437;-33.956;151.076;2023-05-01T09:58:26;21.60;57.10
48648;DHT22;34437;-33.956;151.076;2023-05-01T10:00:49;21.60;57.40
48648;DHT22;34437;-33.956;151.076;2023-05-01T10:03:12;21.60;58.20
48648;DHT22;34437;-33.956;151.076;2023-05-01T10:05:45;21.70;58.70
48648;DHT22;34437;-33.956;151.076;2023-05-01T10:08:07;21.70;59.00
48648;DHT22;34437;-33.956;151.076;2023-05-01T10:10:35;21.70;59.00
48648;DHT22;34437;-33.956;151.076;2023-05-01T10:13:15;21.70;59.10
48648;DHT22;34437;-33.956;151.076;2023-05-01T10:15:38;21.70;59.00
48648;DHT22;34437;-33.956;151.076;2023-05-01T10:18:00;21.70;59.10
48648;DHT22;34437;-33.956;151.076;2023-05-01T10:20:23;21.70;59.00
48648;DHT22;34437;-33.956;151.076;2023-05-01T10:22:45;21.80;59.00
48648;DHT22;34437;-33.956;151.076;2023-05-01T10:25:11;21.80;58.80
48648;DHT22;34437;-33.956;151.076;2023-05-01T10:27:34;21.80;58.90
48648;DHT22;34437;-33.956;151.076;2023-05-01T10:30:01;21.80;58.90
48648;DHT22;34437;-33.956;151.076;2023-05-01T10:32:28;21.80;58.90
48648;DHT22;34437;-33.956;151.076;2023-05-01T10:35:02;21.70;57.00
48648;DHT22;34437;-33.956;151.076;2023-05-01T10:37:47;21.70;56.30
48648;DHT22;34437;-33.956;151.076;2023-05-01T10:40:47;21.60;56.50
48648;DHT22;34437;-33.956;151.076;2023-05-01T10:43:18;21.60;56.40
48648;DHT22;34437;-33.956;151.076;2023-05-01T10:45:45;21.60;56.70
48648;DHT22;34437;-33.956;151.076;2023-05-01T10:48:08;21.60;57.10
48648;DHT22;34437;-33.956;151.076;2023-05-01T10:50:31;21.60;57.40
48648;DHT22;34437;-33.956;151.076;2023-05-01T10:55:36;21.60;57.90
48648;DHT22;34437;-33.956;151.076;2023-05-01T10:57:58;21.60;58.00
48648;DHT22;34437;-33.956;151.076;2023-05-01T11:00:21;21.60;58.10
48648;DHT22;34437;-33.956;151.076;2023-05-01T11:02:44;21.60;58.10
48648;DHT22;34437;-33.956;151.076;2023-05-01T11:05:06;21.60;58.30
48648;DHT22;34437;-33.956;151.076;2023-05-01T11:07:29;21.60;58.30
48648;DHT22;34437;-33.956;151.076;2023-05-01T11:09:52;21.60;58.40
48648;DHT22;34437;-33.956;151.076;2023-05-01T11:15:04;21.60;58.50
48648;DHT22;34437;-33.956;151.076;2023-05-01T11:20:03;21.60;58.40
48648;DHT22;34437;-33.956;151.076;2023-05-01T11:22:26;21.60;58.50
48648;DHT22;34437;-33.956;151.076;2023-05-01T11:24:49;21.60;58.40
48648;DHT22;34437;-33.956;151.076;2023-05-01T11:27:13;21.60;58.30
48648;DHT22;34437;-33.956;151.076;2023-05-01T11:29:37;21.60;58.30
48648;DHT22;34437;-33.956;151.076;2023-05-01T11:32:00;21.50;58.70
48648;DHT22;34437;-33.956;151.076;2023-05-01T11:34:23;21.60;58.80
48648;DHT22;34437;-33.956;151.076;2023-05-01T11:36:52;21.60;59.50
48648;DHT22;34437;-33.956;151.076;2023-05-01T11:39:15;21.60;58.70
48648;DHT22;34437;-33.956;151.076;2023-05-01T11:41:38;21.50;58.70
48648;DHT22;34437;-33.956;151.076;2023-05-01T11:44:01;21.50;58.70
48648;DHT22;34437;-33.956;151.076;2023-05-01T11:46:24;21.50;58.60
48648;DHT22;34437;-33.956;151.076;2023-05-01T11:48:50;21.50;58.60
48648;DHT22;34437;-33.956;151.076;2023-05-01T11:51:13;21.40;58.90
48648;DHT22;34437;-33.956;151.076;2023-05-01T11:53:35;21.40;59.00
48648;DHT22;34437;-33.956;151.076;2023-05-01T11:55:58;21.40;59.00
48648;DHT22;34437;-33.956;151.076;2023-05-01T11:58:31;21.40;58.90
48648;DHT22;34437;-33.956;151.076;2023-05-01T12:00:54;21.40;58.40
48648;DHT22;34437;-33.956;151.076;2023-05-01T12:03:16;21.30;58.00
48648;DHT22;34437;-33.956;151.076;2023-05-01T12:05:43;21.30;58.40
48648;DHT22;34437;-33.956;151.076;2023-05-01T12:08:15;21.30;58.40
48648;DHT22;34437;-33.956;151.076;2023-05-01T12:10:45;21.20;58.40
48648;DHT22;34437;-33.956;151.076;2023-05-01T12:13:10;21.20;58.60
48648;DHT22;34437;-33.956;151.076;2023-05-01T12:15:38;21.20;58.70
48648;DHT22;34437;-33.956;151.076;2023-05-01T12:18:02;21.20;58.80
48648;DHT22;34437;-33.956;151.076;2023-05-01T12:20:57;21.20;59.00
48648;DHT22;34437;-33.956;151.076;2023-05-01T12:23:35;21.20;59.20
48648;DHT22;34437;-33.956;151.076;2023-05-01T12:25:58;21.10;59.10
48648;DHT22;34437;-33.956;151.076;2023-05-01T12:28:21;21.10;59.40
48648;DHT22;34437;-33.956;151.076;2023-05-01T12:30:44;21.10;59.70
48648;DHT22;34437;-33.956;151.076;2023-05-01T12:33:15;21.10;59.80
48648;DHT22;34437;-33.956;151.076;2023-05-01T12:35:39;21.10;59.80
48648;DHT22;34437;-33.956;151.076;2023-05-01T12:38:19;21.10;59.70
48648;DHT22;34437;-33.956;151.076;2023-05-01T12:40:56;21.10;59.90
48648;DHT22;34437;-33.956;151.076;2023-05-01T12:43:34;21.10;60.00
48648;DHT22;34437;-33.956;151.076;2023-05-01T12:45:57;21.00;59.90
48648;DHT22;34437;-33.956;151.076;2023-05-01T12:48:20;21.00;60.10
48648;DHT22;34437;-33.956;151.076;2023-05-01T12:50:43;21.00;60.10
48648;DHT22;34437;-33.956;151.076;2023-05-01T12:53:08;21.00;60.30
48648;DHT22;34437;-33.956;151.076;2023-05-01T12:55:30;21.00;60.20
48648;DHT22;34437;-33.956;151.076;2023-05-01T12:57:56;21.00;60.30
48648;DHT22;34437;-33.956;151.076;2023-05-01T13:00:20;21.00;60.30
48648;DHT22;34437;-33.956;151.076;2023-05-01T13:02:42;20.90;60.40
48648;DHT22;34437;-33.956;151.076;2023-05-01T13:05:10;20.90;60.40
48648;DHT22;34437;-33.956;151.076;2023-05-01T13:07:35;20.90;60.40
48648;DHT22;34437;-33.956;151.076;2023-05-01T13:09:59;20.90;60.50
48648;DHT22;34437;-33.956;151.076;2023-05-01T13:12:22;20.90;60.50
48648;DHT22;34437;-33.956;151.076;2023-05-01T13:14:45;20.80;60.50
48648;DHT22;34437;-33.956;151.076;2023-05-01T13:17:11;20.80;60.70
48648;DHT22;34437;-33.956;151.076;2023-05-01T13:19:42;20.80;60.70
48648;DHT22;34437;-33.956;151.076;2023-05-01T13:22:05;20.80;60.80
48648;DHT22;34437;-33.956;151.076;2023-05-01T13:24:41;20.70;61.00
48648;DHT22;34437;-33.956;151.076;2023-05-01T13:27:13;20.70;61.30
48648;DHT22;34437;-33.956;151.076;2023-05-01T13:29:36;20.70;61.00
48648;DHT22;34437;-33.956;151.076;2023-05-01T13:31:59;20.70;60.90
48648;DHT22;34437;-33.956;151.076;2023-05-01T13:34:30;20.70;60.90
48648;DHT22;34437;-33.956;151.076;2023-05-01T13:36:54;20.60;61.10
48648;DHT22;34437;-33.956;151.076;2023-05-01T13:39:20;20.60;61.10
48648;DHT22;34437;-33.956;151.076;2023-05-01T13:41:43;20.60;61.40
48648;DHT22;34437;-33.956;151.076;2023-05-01T13:44:06;20.60;61.40
48648;DHT22;34437;-33.956;151.076;2023-05-01T13:46:28;20.60;61.60
48648;DHT22;34437;-33.956;151.076;2023-05-01T13:48:51;20.60;61.70
48648;DHT22;34437;-33.956;151.076;2023-05-01T13:51:21;20.60;61.40
48648;DHT22;34437;-33.956;151.076;2023-05-01T13:53:43;20.60;61.30
48648;DHT22;34437;-33.956;151.076;2023-05-01T13:56:08;20.60;61.10
48648;DHT22;34437;-33.956;151.076;2023-05-01T13:58:32;20.50;61.20
48648;DHT22;34437;-33.956;151.076;2023-05-01T14:00:54;20.50;61.30
48648;DHT22;34437;-33.956;151.076;2023-05-01T14:03:17;20.50;61.20
48648;DHT22;34437;-33.956;151.076;2023-05-01T14:05:40;20.50;61.20
48648;DHT22;34437;-33.956;151.076;2023-05-01T14:08:03;20.40;61.30
48648;DHT22;34437;-33.956;151.076;2023-05-01T14:10:27;20.40;61.10
48648;DHT22;34437;-33.956;151.076;2023-05-01T14:12:50;20.40;61.30
48648;DHT22;34437;-33.956;151.076;2023-05-01T14:15:17;20.40;61.40
48648;DHT22;34437;-33.956;151.076;2023-05-01T14:17:39;20.40;61.20
48648;DHT22;34437;-33.956;151.076;2023-05-01T14:20:03;20.30;61.70
48648;DHT22;34437;-33.956;151.076;2023-05-01T14:22:35;20.30;61.30
48648;DHT22;34437;-33.956;151.076;2023-05-01T14:25:01;20.30;61.70
48648;DHT22;34437;-33.956;151.076;2023-05-01T14:27:26;20.30;61.80
48648;DHT22;34437;-33.956;151.076;2023-05-01T14:29:49;20.30;61.80
48648;DHT22;34437;-33.956;151.076;2023-05-01T14:32:12;20.30;61.70
48648;DHT22;34437;-33.956;151.076;2023-05-01T14:34:40;20.20;61.60
48648;DHT22;34437;-33.956;151.076;2023-05-01T14:37:03;20.20;61.10
48648;DHT22;34437;-33.956;151.076;2023-05-01T14:39:26;20.20;61.20
48648;DHT22;34437;-33.956;151.076;2023-05-01T14:41:48;20.20;61.10
48648;DHT22;34437;-33.956;151.076;2023-05-01T14:44:16;20.20;61.20
48648;DHT22;34437;-33.956;151.076;2023-05-01T14:46:43;20.20;61.30
48648;DHT22;34437;-33.956;151.076;2023-05-01T14:49:07;20.10;61.00
48648;DHT22;34437;-33.956;151.076;2023-05-01T14:51:32;20.10;61.10
48648;DHT22;34437;-33.956;151.076;2023-05-01T14:53:55;20.10;61.40
48648;DHT22;34437;-33.956;151.076;2023-05-01T14:56:17;20.10;61.00
48648;DHT22;34437;-33.956;151.076;2023-05-01T14:58:40;20.10;61.20
48648;DHT22;34437;-33.956;151.076;2023-05-01T15:01:02;20.00;61.30